createdAt,value
2023-02-05T00:00:57.659Z,82.02
2023-02-05T00:03:25.489Z,82.09
2023-02-05T00:05:38.149Z,82.15
2023-02-05T00:07:50.786Z,81.97
2023-02-05T00:10:04.142Z,82.22
2023-02-05T00:12:16.704Z,82.33
2023-02-05T00:14:29.258Z,82.04
2023-02-05T00:16:41.892Z,81.87
2023-02-05T00:18:54.835Z,82.04
2023-02-05T00:21:08.335Z,81.99
2023-02-05T00:23:20.862Z,82.22
2023-02-05T00:25:34.120Z,82.21
2023-02-05T00:27:46.773Z,82.51
2023-02-05T00:29:59.389Z,82.17
2023-02-05T00:32:12.141Z,82.25
2023-02-05T00:34:24.751Z,82.70
2023-02-05T00:36:37.289Z,82.76
2023-02-05T00:38:50.526Z,82.73
2023-02-05T00:41:03.487Z,83.31
2023-02-05T00:43:16.032Z,82.87
2023-02-05T00:45:35.115Z,83.44
2023-02-05T00:47:48.184Z,83.18
2023-02-05T00:50:00.872Z,83.31
2023-02-05T00:52:13.622Z,83.29
2023-02-05T00:54:26.275Z,83.19
2023-02-05T00:56:38.807Z,83.62
2023-02-05T00:58:51.336Z,83.74
2023-02-05T01:01:04.716Z,83.85
2023-02-05T01:03:18.439Z,84.24
2023-02-05T01:05:31.545Z,84.06
2023-02-05T01:07:44.295Z,83.98
2023-02-05T01:09:56.924Z,84.40
2023-02-05T01:12:09.497Z,84.27
2023-02-05T01:14:22.068Z,84.66
2023-02-05T01:16:34.648Z,84.85
2023-02-05T01:18:47.257Z,84.52
2023-02-05T01:20:59.871Z,84.91
2023-02-05T01:23:12.452Z,84.86
2023-02-05T01:25:25.099Z,85.27
2023-02-05T01:27:37.734Z,85.16
2023-02-05T01:29:51.220Z,85.15
2023-02-05T01:32:03.981Z,85.28
2023-02-05T01:34:16.627Z,85.59
2023-02-05T01:36:29.178Z,85.56
2023-02-05T01:38:41.803Z,85.56
2023-02-05T01:40:54.339Z,85.49
2023-02-05T01:43:13.458Z,85.66
2023-02-05T01:45:26.123Z,85.93
2023-02-05T01:47:38.647Z,85.59
2023-02-05T01:49:51.278Z,85.94
2023-02-05T01:52:09.705Z,85.76
2023-02-05T01:54:26.601Z,85.55
2023-02-05T01:56:52.421Z,86.08
2023-02-05T01:59:10.087Z,86.03
2023-02-05T02:01:24.252Z,85.99
2023-02-05T02:03:37.803Z,86.20
2023-02-05T02:05:50.361Z,86.58
2023-02-05T02:08:03.396Z,86.63
2023-02-05T02:10:17.798Z,86.78
2023-02-05T02:12:35.059Z,86.44
2023-02-05T02:14:51.939Z,86.86
2023-02-05T02:17:07.146Z,86.64
2023-02-05T02:20:06.375Z,87.13
2023-02-05T02:22:53.411Z,86.95
2023-02-05T02:25:40.200Z,87.19
2023-02-05T02:28:00.159Z,87.09
2023-02-05T02:30:21.801Z,87.29
2023-02-05T02:32:41.221Z,87.29
2023-02-05T02:35:05.177Z,87.28
2023-02-05T02:37:24.018Z,87.51
2023-02-05T02:39:59.843Z,87.79
2023-02-05T02:42:16.651Z,87.79
2023-02-05T02:44:55.300Z,87.41
2023-02-05T02:47:35.079Z,87.65
2023-02-05T02:49:54.292Z,87.87
2023-02-05T02:52:09.057Z,87.90
2023-02-05T02:54:22.604Z,87.98
2023-02-05T02:56:39.295Z,88.10
2023-02-05T02:58:59.406Z,87.63
2023-02-05T03:01:14.336Z,87.90
2023-02-05T03:03:30.331Z,87.94
2023-02-05T03:05:46.631Z,87.89
2023-02-05T03:08:10.448Z,87.73
2023-02-05T03:10:38.792Z,87.77
2023-02-05T03:12:51.926Z,87.61
2023-02-05T03:15:05.765Z,87.54
2023-02-05T03:17:20.913Z,87.53
2023-02-05T03:19:33.748Z,87.69
2023-02-05T03:21:50.398Z,87.71
2023-02-05T03:24:03.371Z,87.73
2023-02-05T03:26:31.063Z,87.74
2023-02-05T03:28:43.826Z,87.65
2023-02-05T03:31:18.716Z,87.70
2023-02-05T03:34:02.823Z,87.88
2023-02-05T03:36:33.349Z,87.98
2023-02-05T03:39:07.095Z,87.89
2023-02-05T03:42:10.064Z,87.73
2023-02-05T03:44:47.072Z,88.08
2023-02-05T03:47:10.338Z,88.35
2023-02-05T03:49:35.430Z,88.28
2023-02-05T03:52:03.835Z,88.23
2023-02-05T03:54:25.438Z,88.53
2023-02-05T03:57:03.482Z,88.64
2023-02-05T03:59:18.739Z,88.54
2023-02-05T04:01:31.966Z,88.84
2023-02-05T04:03:44.582Z,88.74
2023-02-05T04:05:57.180Z,88.87
2023-02-05T04:08:09.802Z,88.94
2023-02-05T04:10:22.472Z,88.97
2023-02-05T04:12:35.105Z,89.21
2023-02-05T04:14:47.744Z,89.05
2023-02-05T04:17:00.850Z,89.24
2023-02-05T04:19:13.429Z,89.04
2023-02-05T04:21:26.105Z,89.22
2023-02-05T04:23:38.707Z,89.42
2023-02-05T04:25:55.405Z,89.39
2023-02-05T04:28:09.722Z,89.32
2023-02-05T04:30:22.375Z,89.60
2023-02-05T04:32:34.939Z,89.66
2023-02-05T04:34:47.468Z,89.69
2023-02-05T04:37:00.225Z,89.92
2023-02-05T04:39:12.908Z,89.64
2023-02-05T04:41:25.602Z,90.04
2023-02-05T04:43:38.223Z,89.96
2023-02-05T04:45:50.835Z,89.99
2023-02-05T04:48:03.671Z,89.82
2023-02-05T04:50:16.497Z,89.86
2023-02-05T04:52:29.311Z,90.04
2023-02-05T04:54:41.794Z,89.95
2023-02-05T04:56:54.518Z,90.28
2023-02-05T04:59:07.122Z,90.18
2023-02-05T05:01:22.018Z,89.77
2023-02-05T05:03:34.641Z,90.16
2023-02-05T05:05:47.212Z,90.09
2023-02-05T05:07:59.976Z,90.04
2023-02-05T05:10:12.790Z,90.31
2023-02-05T05:12:25.292Z,90.27
2023-02-05T05:14:37.857Z,90.30
2023-02-05T05:16:50.668Z,90.30
2023-02-05T05:19:03.421Z,90.39
2023-02-05T05:21:16.040Z,90.49
2023-02-05T05:23:28.864Z,90.41
2023-02-05T05:25:42.630Z,90.30
2023-02-05T05:27:55.192Z,90.49
2023-02-05T05:30:08.495Z,90.36
2023-02-05T05:32:21.148Z,90.43
2023-02-05T05:34:33.709Z,90.53
2023-02-05T05:36:47.560Z,90.57
2023-02-05T05:39:20.099Z,90.66
2023-02-05T05:41:51.246Z,90.71
2023-02-05T05:44:03.931Z,90.66
2023-02-05T05:46:24.830Z,90.92
2023-02-05T05:48:37.533Z,90.83
2023-02-05T05:50:50.252Z,91.04
2023-02-05T05:53:03.048Z,91.19
2023-02-05T05:55:15.629Z,91.49
2023-02-05T05:57:28.375Z,91.48
2023-02-05T05:59:40.980Z,91.71
2023-02-05T06:01:53.539Z,91.83
2023-02-05T06:04:06.100Z,91.76
2023-02-05T06:06:18.656Z,91.93
2023-02-05T06:08:32.336Z,91.87
2023-02-05T06:10:45.184Z,92.10
2023-02-05T06:12:57.745Z,92.10
2023-02-05T06:15:10.534Z,92.26
2023-02-05T06:17:23.641Z,91.89
2023-02-05T06:19:36.207Z,92.27
2023-02-05T06:21:48.759Z,91.96
2023-02-05T06:24:01.430Z,92.21
2023-02-05T06:26:14.086Z,92.18
2023-02-05T06:28:26.737Z,92.29
2023-02-05T06:30:39.392Z,92.00
2023-02-05T06:32:52.026Z,92.47
2023-02-05T06:35:04.908Z,92.26
2023-02-05T06:37:17.739Z,92.29
2023-02-05T06:39:30.533Z,92.34
2023-02-05T06:41:43.088Z,92.50
2023-02-05T06:43:55.634Z,92.53
2023-02-05T06:46:08.326Z,92.74
2023-02-05T06:48:20.975Z,92.60
2023-02-05T06:50:33.579Z,92.43
2023-02-05T06:52:46.139Z,92.82
2023-02-05T06:54:58.693Z,92.87
2023-02-05T06:57:12.007Z,93.09
2023-02-05T06:59:24.771Z,92.82
2023-02-05T07:01:37.468Z,93.25
2023-02-05T07:03:54.369Z,93.54
2023-02-05T07:06:07.445Z,93.70
2023-02-05T07:08:20.057Z,93.81
2023-02-05T07:10:32.933Z,93.77
2023-02-05T07:12:45.453Z,93.80
2023-02-05T07:14:58.007Z,94.33
2023-02-05T07:17:10.785Z,94.39
2023-02-05T07:19:23.345Z,94.53
2023-02-05T07:21:35.966Z,94.75
2023-02-05T07:23:48.586Z,94.77
2023-02-05T07:26:15.454Z,94.66
2023-02-05T07:28:28.056Z,94.81
2023-02-05T07:30:40.975Z,94.72
2023-02-05T07:32:53.680Z,94.79
2023-02-05T07:35:06.516Z,94.59
2023-02-05T07:37:21.310Z,94.53
2023-02-05T07:39:33.968Z,94.43
2023-02-05T07:41:46.593Z,94.20
2023-02-05T07:43:59.459Z,93.83
2023-02-05T07:46:14.621Z,93.99
2023-02-05T07:48:27.268Z,93.41
2023-02-05T07:50:44.199Z,93.51
2023-02-05T07:52:56.756Z,93.05
2023-02-05T07:55:09.414Z,93.03
2023-02-05T07:57:21.976Z,93.28
2023-02-05T07:59:34.514Z,92.67
2023-02-05T08:01:47.012Z,92.48
2023-02-05T08:03:59.567Z,92.45
2023-02-05T08:06:15.386Z,92.05
2023-02-05T08:08:28.007Z,91.90
2023-02-05T08:10:40.521Z,91.30
2023-02-05T08:12:53.100Z,91.27
2023-02-05T08:15:06.065Z,91.37
2023-02-05T08:17:18.664Z,91.06
2023-02-05T08:19:31.221Z,90.44
2023-02-05T08:21:43.940Z,90.12
2023-02-05T08:23:58.424Z,90.25
2023-02-05T08:26:11.972Z,89.78
2023-02-05T08:28:26.957Z,89.91
2023-02-05T08:30:40.035Z,89.38
2023-02-05T08:32:52.637Z,89.31
2023-02-05T08:35:05.938Z,88.79
2023-02-05T08:37:19.435Z,88.62
2023-02-05T08:39:31.948Z,88.10
2023-02-05T08:41:44.543Z,88.18
2023-02-05T08:43:57.163Z,88.10
2023-02-05T08:46:11.362Z,87.60
2023-02-05T08:48:24.048Z,87.20
2023-02-05T08:50:36.565Z,87.02
2023-02-05T08:52:49.764Z,86.70
2023-02-05T08:55:02.323Z,86.34
2023-02-05T08:57:16.497Z,85.85
2023-02-05T08:59:29.087Z,85.30
2023-02-05T09:01:42.997Z,84.96
2023-02-05T09:03:55.670Z,84.52
2023-02-05T09:06:11.082Z,84.17
2023-02-05T09:08:25.041Z,83.12
2023-02-05T09:10:37.868Z,83.11
2023-02-05T09:12:50.390Z,82.52
2023-02-05T09:15:03.242Z,82.06
2023-02-05T09:17:16.092Z,81.34
2023-02-05T09:19:30.374Z,80.57
2023-02-05T09:21:42.958Z,79.94
2023-02-05T09:23:55.596Z,79.37
2023-02-05T09:26:09.289Z,78.47
2023-02-05T09:28:21.825Z,78.90
2023-02-05T09:30:35.969Z,78.28
2023-02-05T09:32:48.562Z,77.85
2023-02-05T09:35:01.168Z,77.56
2023-02-05T09:37:13.830Z,77.16
2023-02-05T09:40:11.929Z,76.97
2023-02-05T09:42:18.708Z,73.65
2023-02-05T09:44:52.106Z,75.43
2023-02-05T09:47:13.697Z,75.28
2023-02-05T09:49:40.480Z,74.27
2023-02-05T09:51:59.744Z,73.93
2023-02-05T09:54:18.655Z,73.57
2023-02-05T09:56:33.544Z,72.63
2023-02-05T09:58:53.301Z,67.14
2023-02-05T10:01:19.208Z,67.46
2023-02-05T10:03:42.384Z,69.45
2023-02-05T10:06:35.236Z,69.59
2023-02-05T10:09:35.904Z,67.14
2023-02-05T10:11:57.837Z,66.75
2023-02-05T10:14:41.278Z,67.85
2023-02-05T10:17:18.189Z,67.09
2023-02-05T10:20:05.492Z,67.54
2023-02-05T10:22:43.592Z,66.46
2023-02-05T10:25:20.808Z,68.18
2023-02-05T10:27:46.203Z,68.21
2023-02-05T10:30:06.551Z,67.94
2023-02-05T10:32:24.740Z,65.13
2023-02-05T10:35:05.602Z,66.79
2023-02-05T10:37:25.420Z,67.09
2023-02-05T10:39:38.007Z,66.42
2023-02-05T10:41:56.139Z,65.56
2023-02-05T10:44:20.594Z,66.25
2023-02-05T10:46:36.554Z,65.08
2023-02-05T10:48:51.550Z,64.48
2023-02-05T10:51:13.878Z,64.85
2023-02-05T10:53:28.050Z,65.34
2023-02-05T10:55:40.602Z,64.90
2023-02-05T10:57:54.026Z,64.34
2023-02-05T11:00:15.923Z,64.69
2023-02-05T11:02:34.190Z,64.76
2023-02-05T11:05:00.177Z,64.53
2023-02-05T11:07:19.636Z,64.80
2023-02-05T11:09:34.258Z,64.77
2023-02-05T11:11:51.481Z,64.57
2023-02-05T11:14:06.794Z,64.15
2023-02-05T11:16:19.917Z,63.95
2023-02-05T11:18:39.065Z,64.09
2023-02-05T11:20:59.287Z,64.32
2023-02-05T11:23:21.298Z,64.44
2023-02-05T11:25:34.187Z,64.11
2023-02-05T11:27:55.075Z,64.09
2023-02-05T11:30:50.030Z,63.71
2023-02-05T11:33:22.163Z,63.73
2023-02-05T11:35:34.926Z,63.05
2023-02-05T11:37:59.543Z,62.67
2023-02-05T11:40:22.504Z,62.16
2023-02-05T11:42:35.096Z,61.74
2023-02-05T11:44:52.415Z,61.22
2023-02-05T11:47:04.979Z,61.00
2023-02-05T11:49:22.577Z,60.71
2023-02-05T11:51:42.976Z,60.32
2023-02-05T11:53:59.007Z,60.07
2023-02-05T11:56:21.507Z,59.98
2023-02-05T11:58:37.399Z,59.87
2023-02-05T12:00:57.702Z,59.72
2023-02-05T12:03:18.816Z,59.97
2023-02-05T12:05:37.279Z,60.05
2023-02-05T12:08:09.067Z,59.58
2023-02-05T12:10:38.093Z,59.10
2023-02-05T12:13:10.180Z,59.11
2023-02-05T12:15:35.005Z,59.10
2023-02-05T12:18:06.024Z,59.42
2023-02-05T12:20:29.216Z,59.26
2023-02-05T12:23:01.229Z,58.35
2023-02-05T12:25:26.491Z,58.69
2023-02-05T12:27:55.567Z,58.79
2023-02-05T12:30:25.993Z,58.53
2023-02-05T12:33:00.600Z,58.45
2023-02-05T12:35:29.942Z,58.61
2023-02-05T12:38:21.164Z,58.54
2023-02-05T12:41:36.765Z,58.76
2023-02-05T12:43:50.604Z,58.46
2023-02-05T12:46:48.230Z,58.70
2023-02-05T12:49:16.008Z,58.46
2023-02-05T12:51:56.003Z,58.12
2023-02-05T12:54:29.228Z,58.31
2023-02-05T12:56:58.016Z,58.52
2023-02-05T12:59:19.580Z,57.91
2023-02-05T13:01:42.848Z,57.67
2023-02-05T13:04:01.402Z,57.55
2023-02-05T13:06:35.072Z,57.43
2023-02-05T13:08:55.876Z,57.53
2023-02-05T13:11:28.815Z,57.68
2023-02-05T13:13:58.309Z,57.92
2023-02-05T13:16:16.160Z,57.58
2023-02-05T13:18:34.242Z,57.62
2023-02-05T13:21:11.982Z,57.90
2023-02-05T13:23:43.805Z,58.24
2023-02-05T13:26:16.140Z,58.45
2023-02-05T13:28:43.382Z,58.60
2023-02-05T13:30:58.232Z,58.40
2023-02-05T13:33:10.879Z,58.04
2023-02-05T13:35:25.636Z,57.78
2023-02-05T13:37:55.940Z,57.86
2023-02-05T13:40:21.323Z,58.07
2023-02-05T13:43:16.964Z,58.23
2023-02-05T13:45:57.545Z,58.53
2023-02-05T13:48:38.765Z,58.62
2023-02-05T13:51:13.368Z,58.23
2023-02-05T13:53:45.245Z,58.31
2023-02-05T13:56:30.652Z,58.18
2023-02-05T13:58:57.700Z,58.48
2023-02-05T14:01:24.172Z,58.56
2023-02-05T14:03:57.119Z,58.75
2023-02-05T14:06:17.243Z,58.77
2023-02-05T14:08:37.544Z,58.96
2023-02-05T14:11:04.020Z,58.73
2023-02-05T14:13:25.935Z,58.83
2023-02-05T14:15:42.337Z,58.97
2023-02-05T14:17:55.916Z,58.72
2023-02-05T14:20:27.130Z,58.69
2023-02-05T14:22:44.461Z,58.64
2023-02-05T14:25:01.035Z,58.67
2023-02-05T14:27:27.936Z,58.73
2023-02-05T14:29:43.592Z,58.65
2023-02-05T14:31:56.543Z,58.53
2023-02-05T14:34:34.533Z,58.46
2023-02-05T14:36:47.288Z,58.50
2023-02-05T14:39:22.133Z,58.60
2023-02-05T14:41:40.781Z,58.28
2023-02-05T14:44:17.070Z,58.42
2023-02-05T14:46:36.624Z,58.47
2023-02-05T14:48:49.434Z,58.64
2023-02-05T14:51:17.133Z,58.67
2023-02-05T14:53:31.404Z,58.92
2023-02-05T14:55:44.397Z,58.92
2023-02-05T14:58:03.303Z,58.79
2023-02-05T15:00:42.466Z,58.79
2023-02-05T15:03:19.731Z,58.79
2023-02-05T15:05:35.996Z,59.07
2023-02-05T15:07:52.553Z,58.91
2023-02-05T15:10:16.264Z,58.87
2023-02-05T15:12:53.973Z,59.03
2023-02-05T15:15:33.830Z,59.21
2023-02-05T15:17:50.956Z,59.10
2023-02-05T15:20:18.531Z,59.00
2023-02-05T15:22:36.828Z,58.99
2023-02-05T15:24:53.701Z,59.07
2023-02-05T15:27:15.791Z,59.15
2023-02-05T15:29:41.571Z,59.32
2023-02-05T15:31:57.908Z,59.36
2023-02-05T15:34:28.732Z,59.41
2023-02-05T15:36:52.339Z,59.28
2023-02-05T15:39:35.914Z,59.12
2023-02-05T15:41:48.764Z,59.58
2023-02-05T15:44:03.846Z,59.75
2023-02-05T15:46:17.519Z,60.14
2023-02-05T15:48:32.793Z,60.10
2023-02-05T15:50:56.168Z,60.22
2023-02-05T15:53:19.460Z,60.37
2023-02-05T15:55:33.481Z,60.64
2023-02-05T15:57:47.942Z,60.90
2023-02-05T16:00:03.015Z,60.99
2023-02-05T16:02:20.443Z,61.16
2023-02-05T16:04:37.211Z,61.47
2023-02-05T16:06:49.724Z,61.34
2023-02-05T16:09:02.232Z,61.59
2023-02-05T16:11:33.111Z,61.83
2023-02-05T16:13:45.628Z,62.03
2023-02-05T16:16:18.094Z,62.12
2023-02-05T16:18:40.604Z,62.60
2023-02-05T16:21:02.120Z,62.60
2023-02-05T16:23:28.449Z,63.18
2023-02-05T16:25:49.158Z,63.24
2023-02-05T16:28:07.978Z,63.28
2023-02-05T16:30:31.135Z,63.71
2023-02-05T16:32:44.454Z,63.65
2023-02-05T16:34:59.999Z,64.15
2023-02-05T16:37:16.878Z,64.39
2023-02-05T16:39:37.580Z,64.68
2023-02-05T16:42:06.004Z,65.18
2023-02-05T16:44:31.885Z,65.49
2023-02-05T16:46:44.608Z,65.72
2023-02-05T16:49:01.374Z,66.39
2023-02-05T16:51:33.149Z,66.15
2023-02-05T16:53:50.124Z,66.03
2023-02-05T16:56:23.519Z,66.18
2023-02-05T16:58:52.907Z,66.50
2023-02-05T17:01:05.520Z,66.69
2023-02-05T17:03:19.184Z,66.49
2023-02-05T17:05:34.363Z,66.65
2023-02-05T17:07:57.358Z,66.76
2023-02-05T17:10:20.938Z,67.06
2023-02-05T17:12:33.472Z,67.35
2023-02-05T17:14:57.889Z,67.34
2023-02-05T17:17:18.789Z,67.27
2023-02-05T17:19:33.732Z,67.42
2023-02-05T17:21:46.606Z,67.59
2023-02-05T17:24:02.661Z,67.58
2023-02-05T17:26:15.695Z,68.01
2023-02-05T17:28:29.967Z,67.98
2023-02-05T17:30:44.797Z,68.02
2023-02-05T17:32:57.578Z,68.50
2023-02-05T17:35:14.606Z,68.59
2023-02-05T17:37:27.138Z,68.49
2023-02-05T17:39:40.913Z,68.61
2023-02-05T17:42:07.805Z,69.13
2023-02-05T17:44:21.428Z,68.83
2023-02-05T17:46:33.965Z,69.52
2023-02-05T17:48:46.722Z,69.84
2023-02-05T17:50:59.246Z,70.02
2023-02-05T17:53:13.916Z,70.32
2023-02-05T17:55:26.924Z,70.52
2023-02-05T17:57:40.322Z,70.76
2023-02-05T17:59:53.759Z,70.74
2023-02-05T18:02:07.089Z,70.82
2023-02-05T18:04:20.041Z,71.31
2023-02-05T18:06:33.864Z,71.32
2023-02-05T18:08:46.804Z,71.08
2023-02-05T18:10:59.408Z,71.34
2023-02-05T18:13:11.924Z,71.79
2023-02-05T18:15:25.824Z,71.77
2023-02-05T18:17:39.182Z,72.02
2023-02-05T18:19:53.056Z,72.38
2023-02-05T18:22:07.656Z,72.50
2023-02-05T18:24:20.343Z,72.85
2023-02-05T18:26:33.156Z,73.06
2023-02-05T18:28:46.703Z,73.19
2023-02-05T18:31:10.199Z,73.23
2023-02-05T18:33:22.919Z,73.55
2023-02-05T18:35:37.895Z,73.57
2023-02-05T18:37:50.515Z,73.75
2023-02-05T18:40:04.401Z,74.01
2023-02-05T18:42:17.178Z,74.15
2023-02-05T18:44:29.784Z,74.25
2023-02-05T18:46:42.819Z,74.43
2023-02-05T18:48:58.127Z,74.25
2023-02-05T18:51:13.368Z,74.29
2023-02-05T18:53:28.276Z,74.67
2023-02-05T18:55:41.473Z,74.67
2023-02-05T18:57:54.268Z,74.89
2023-02-05T19:00:07.708Z,75.09
2023-02-05T19:02:20.663Z,75.14
2023-02-05T19:04:33.396Z,75.60
2023-02-05T19:06:52.339Z,75.73
2023-02-05T19:09:04.920Z,75.81
2023-02-05T19:11:20.948Z,76.07
2023-02-05T19:13:34.184Z,75.97
2023-02-05T19:15:48.164Z,76.20
2023-02-05T19:18:00.795Z,76.01
2023-02-05T19:20:13.620Z,76.22
2023-02-05T19:22:26.368Z,76.30
2023-02-05T19:24:40.606Z,76.52
2023-02-05T19:26:56.426Z,76.77
2023-02-05T19:29:13.599Z,76.67
2023-02-05T19:31:28.830Z,76.84
2023-02-05T19:33:42.110Z,77.14
2023-02-05T19:35:57.108Z,77.50
2023-02-05T19:38:09.653Z,77.64
2023-02-05T19:40:22.261Z,77.86
2023-02-05T19:42:35.183Z,77.98
2023-02-05T19:44:47.715Z,78.28
2023-02-05T19:47:00.473Z,78.38
2023-02-05T19:49:16.352Z,78.58
2023-02-05T19:51:28.940Z,79.02
2023-02-05T19:53:44.217Z,78.98
2023-02-05T19:56:08.541Z,79.22
2023-02-05T19:58:21.047Z,79.45
2023-02-05T20:00:33.799Z,79.57
2023-02-05T20:02:46.709Z,79.80
2023-02-05T20:04:59.414Z,79.84
2023-02-05T20:07:12.372Z,80.02
2023-02-05T20:09:27.114Z,80.37
2023-02-05T20:11:41.803Z,80.13
2023-02-05T20:13:54.403Z,80.11
2023-02-05T20:16:16.521Z,80.47
2023-02-05T20:18:29.497Z,80.51
2023-02-05T20:20:42.288Z,80.49
2023-02-05T20:22:54.832Z,80.53
2023-02-05T20:25:07.582Z,80.44
2023-02-05T20:27:21.503Z,80.47
2023-02-05T20:29:52.425Z,80.70
2023-02-05T20:32:05.875Z,80.58
2023-02-05T20:34:22.324Z,80.88
2023-02-05T20:36:35.228Z,80.74
2023-02-05T20:38:47.934Z,80.75
2023-02-05T20:41:09.799Z,81.02
2023-02-05T20:43:22.662Z,80.99
2023-02-05T20:45:35.222Z,81.09
2023-02-05T20:47:48.000Z,81.37
2023-02-05T20:50:00.633Z,81.33
2023-02-05T20:52:13.414Z,81.52
2023-02-05T20:54:26.098Z,81.47
2023-02-05T20:56:38.812Z,81.52
2023-02-05T20:58:51.674Z,81.47
2023-02-05T21:01:10.053Z,81.47
2023-02-05T21:03:22.948Z,81.36
2023-02-05T21:05:35.937Z,81.71
2023-02-05T21:07:48.514Z,81.66
2023-02-05T21:10:02.178Z,81.45
2023-02-05T21:12:15.548Z,81.57
2023-02-05T21:14:28.437Z,81.85
2023-02-05T21:16:41.480Z,81.67
2023-02-05T21:18:54.642Z,81.82
2023-02-05T21:21:08.342Z,81.83
2023-02-05T21:23:21.724Z,82.02
2023-02-05T21:25:35.973Z,82.11
2023-02-05T21:27:50.477Z,82.27
2023-02-05T21:30:03.718Z,82.21
2023-02-05T21:32:16.337Z,82.45
2023-02-05T21:34:29.542Z,82.91
2023-02-05T21:36:42.120Z,83.10
2023-02-05T21:38:55.015Z,83.24
2023-02-05T21:41:08.702Z,83.39
2023-02-05T21:43:21.390Z,83.45
2023-02-05T21:45:36.615Z,83.83
2023-02-05T21:47:49.507Z,83.99
2023-02-05T21:50:02.182Z,84.06
2023-02-05T21:52:14.888Z,84.01
2023-02-05T21:54:27.553Z,83.96
2023-02-05T21:56:42.631Z,84.28
2023-02-05T21:58:55.876Z,84.23
2023-02-05T22:01:14.189Z,84.20
2023-02-05T22:03:26.835Z,84.69
2023-02-05T22:05:39.407Z,84.23
2023-02-05T22:07:52.020Z,84.63
2023-02-05T22:10:05.026Z,84.57
2023-02-05T22:12:17.985Z,84.72
2023-02-05T22:14:30.845Z,84.90
2023-02-05T22:16:43.585Z,84.90
2023-02-05T22:18:57.437Z,84.99
2023-02-05T22:21:13.666Z,85.16
2023-02-05T22:23:26.236Z,84.78
2023-02-05T22:25:46.050Z,84.92
2023-02-05T22:27:58.821Z,84.78
2023-02-05T22:30:12.105Z,84.87
2023-02-05T22:32:24.876Z,84.81
2023-02-05T22:34:37.588Z,84.84
2023-02-05T22:36:50.130Z,84.99
2023-02-05T22:39:04.388Z,84.81
2023-02-05T22:41:25.682Z,85.02
2023-02-05T22:43:38.649Z,84.74
2023-02-05T22:45:51.234Z,84.77
2023-02-05T22:48:03.887Z,84.91
2023-02-05T22:50:16.655Z,84.83
2023-02-05T22:52:29.199Z,84.72
2023-02-05T22:54:41.832Z,84.35
2023-02-05T22:56:54.473Z,84.76
2023-02-05T22:59:07.919Z,84.76
2023-02-05T23:01:24.745Z,84.70
2023-02-05T23:03:37.946Z,84.85
2023-02-05T23:05:50.940Z,84.89
2023-02-05T23:08:03.542Z,84.86
2023-02-05T23:10:20.252Z,84.75
2023-02-05T23:12:32.850Z,84.99
2023-02-05T23:14:45.370Z,84.70
2023-02-05T23:16:59.786Z,84.81
2023-02-05T23:19:18.595Z,84.75
2023-02-05T23:21:33.432Z,84.73
2023-02-05T23:23:46.590Z,85.04
2023-02-05T23:26:05.674Z,85.03
2023-02-05T23:28:18.551Z,85.01
2023-02-05T23:30:31.184Z,85.05
2023-02-05T23:32:43.775Z,85.51
2023-02-05T23:34:56.414Z,85.42
2023-02-05T23:37:09.017Z,85.73
2023-02-05T23:39:21.648Z,85.83
2023-02-05T23:41:37.634Z,85.47
2023-02-05T23:43:50.234Z,85.90
2023-02-05T23:46:03.822Z,86.02
2023-02-05T23:48:17.236Z,86.21
2023-02-05T23:50:29.812Z,86.70
2023-02-05T23:52:42.349Z,86.77
2023-02-05T23:54:55.113Z,86.84
2023-02-05T23:57:07.691Z,87.04
2023-02-05T23:59:20.307Z,86.72
